Thunder radar more information blitzortung!


Radar de pluja more information rain snow radar


Visita la nostra xarxa de llocs de meteo:

Template documentation
and downloads

And another site



No particular awareness of the weather is required.    There are no Weather-warnings

Pagina Historial Weather Underground text

Diari Resum February 14, 2016 Unitats:  Mètric    Imperial   Tant
« Previous Dia
SegĂźent Dia »
Diari Setmana Mensual Anual Personalitzada
  Maxima: Minima: Media:
Temperatura: -17.8 °C -12.9 °C -11.1 °C
Punt de rosada: -17.8 °C -17.6 °C -17.1 °C
Humitat: Humidity % 35 % 48 %
Wind Speed: 0 km/h 0 km/h 10.3 km/h
RĂ fegues de vent: 0 km/h - -
Vent:- - SW
Pression baro: 0 hPa 33683.9 hPa -
Precipitacions: 0 mm    
Historical Graphs
 
 
Dades de taula per February 14, 2016
Temps Temperatura Punt de rosada Pression baro Vent Wind Speed RĂ fegues de vent Humitat Rainfall Rate (Hourly)
-17.8 °C -17.8 °C 0 hPa Calm     Humidity % 0 mm
14:14 -8.7 °C -16.2 °C 33717.8 hPa NW 11.9 km/h 15.6 km/h 40 % 0 mm
14:19 -8.7 °C -16.2 °C 33717.8 hPa SSW 26.9 km/h 26.9 km/h 40 % 0 mm
14:24 -8.9 °C -16.4 °C 33717.8 hPa WSW 20.9 km/h 20.9 km/h 40 % 0 mm
14:29 -8.8 °C -16.4 °C 33717.8 hPa West 16.6 km/h 16.6 km/h 40 % 0 mm
14:39 -8.8 °C -16.6 °C 33683.9 hPa WSW 20.9 km/h 20.9 km/h 39 % 0 mm
14:44 -8.7 °C -16.3 °C 33683.9 hPa SW 11.1 km/h 11.1 km/h 40 % 0 mm
14:49 -8.6 °C -16.2 °C 33683.9 hPa NNE 19.2 km/h 19.2 km/h 40 % 0 mm
14:54 -8.6 °C -16.2 °C 33683.9 hPa SW 9.8 km/h 9.8 km/h 40 % 0 mm
14:59 -8.3 °C -16.2 °C 33683.9 hPa SE 11.9 km/h 11.9 km/h 39 % 0 mm
15:04 -8.3 °C -16.2 °C 33683.9 hPa SSW 14.5 km/h 14.5 km/h 39 % 0 mm
15:09 -8.3 °C -16.1 °C 33717.8 hPa NE 5.1 km/h 5.1 km/h 39 % 0 mm
15:14 -8.1 °C -16.2 °C 33717.8 hPa WSW 11.9 km/h 11.9 km/h 38 % 0 mm
15:19 -7.9 °C -15.7 °C 33717.8 hPa SW 3.1 km/h   39 % 0 mm
15:24 -7.9 °C -16 °C 33717.8 hPa WSW 11.9 km/h 11.9 km/h 38 % 0 mm
15:29 -8.5 °C -16.7 °C 33717.8 hPa West 9 km/h 9 km/h 37 % 0 mm
15:34 -8.6 °C -16.8 °C 33717.8 hPa SW 3.1 km/h   37 % 0 mm
15:39 -8.5 °C -16.7 °C 33751.6 hPa SW 6 km/h 6 km/h 37 % 0 mm
15:49 -8.5 °C -16.7 °C 33751.6 hPa NNW 11.9 km/h 11.9 km/h 37 % 0 mm
15:54 -7.9 °C -16.4 °C 33751.6 hPa SW 12.7 km/h 12.7 km/h 36 % 0 mm
15:59 -8.2 °C -16.9 °C 33751.6 hPa West 12.2 km/h 12.2 km/h 35 % 0 mm
16:04 -8.6 °C -17.3 °C 33751.6 hPa WSW 9 km/h 9 km/h 35 % 0 mm
16:09 -8.6 °C -17.3 °C 33751.6 hPa WNW 12.7 km/h 12.7 km/h 35 % 0 mm
16:14 -8.6 °C -17.3 °C 33751.6 hPa West 9 km/h 9 km/h 35 % 0 mm
16:19 -9.1 °C -17.4 °C 33751.6 hPa WSW 11.9 km/h 11.9 km/h 36 % 0 mm
16:24 -9.3 °C -17.4 °C 33751.6 hPa SW 15 km/h 15 km/h 37 % 0 mm
16:29 -9.3 °C -17.4 °C 33751.6 hPa West 9 km/h 9.3 km/h 37 % 0 mm
16:34 -9.4 °C -17.6 °C 33751.6 hPa WSW 11.9 km/h 11.9 km/h 37 % 0 mm
16:39 -9.4 °C -17.6 °C 33788.9 hPa West 12.7 km/h 12.7 km/h 37 % 0 mm
16:44 -9.6 °C -17.3 °C 33788.9 hPa WSW 9 km/h 9 km/h 39 % 0 mm
16:49 -9.7 °C -17.3 °C 33788.9 hPa WSW 6 km/h 6 km/h 39 % 0 mm
16:54 -9.7 °C -17.4 °C 33788.9 hPa West 9 km/h 9 km/h 39 % 0 mm
16:59 -9.8 °C -17.3 °C 33788.9 hPa SSW 11.9 km/h 11.9 km/h 40 % 0 mm
17:04 -9.9 °C -17.3 °C 33788.9 hPa WNW 11.9 km/h 11.9 km/h 40 % 0 mm
17:09 -9.9 °C -17.2 °C 33788.9 hPa WSW 15 km/h 15 km/h 41 % 0 mm
17:14 -10 °C -17.3 °C 33788.9 hPa SW 11.9 km/h 11.9 km/h 41 % 0 mm
17:19 -10.1 °C -17.3 °C 33788.9 hPa WSW 20.9 km/h 20.9 km/h 41 % 0 mm
17:24 -10.1 °C -17.3 °C 33751.6 hPa SSE 17.9 km/h 17.9 km/h 41 % 0 mm
17:29 -10.2 °C -17.3 °C 33751.6 hPa WNW 15 km/h 15 km/h 42 % 0 mm
17:34 -10.3 °C -17.3 °C 33751.6 hPa SW 10.3 km/h 10.3 km/h 42 % 0 mm
17:39 -10.3 °C -17.2 °C 33751.6 hPa West 9 km/h 9 km/h 43 % 0 mm
17:44 -10.4 °C -17.3 °C 33751.6 hPa West 22 km/h 22 km/h 43 % 0 mm
17:49 -10.5 °C -17.3 °C 33751.6 hPa WNW 11.9 km/h 11.9 km/h 43 % 0 mm
17:54 -10.6 °C -17.4 °C 33788.9 hPa WSW 11.9 km/h 11.9 km/h 43 % 0 mm
17:59 -10.8 °C -17.4 °C 33788.9 hPa West 15 km/h 15 km/h 44 % 0 mm
18:04 -10.8 °C -17.3 °C 33788.9 hPa ESE 15 km/h 15 km/h 45 % 0 mm
18:14 -11.1 °C -17.3 °C 33788.9 hPa WSW 15 km/h 15 km/h 46 % 0 mm
18:19 -11.2 °C -17.3 °C 33788.9 hPa SW 9 km/h 9 km/h 47 % 0 mm
18:24 -11.3 °C -17.2 °C 33788.9 hPa SW 15 km/h 15 km/h 48 % 0 mm
18:29 -11.4 °C -17.3 °C 33788.9 hPa WSW 9 km/h 9 km/h 48 % 0 mm
18:34 -11.4 °C -17.2 °C 33788.9 hPa WNW 9 km/h 9 km/h 49 % 0 mm
18:39 -11.5 °C -17.1 °C 33788.9 hPa WSW 9 km/h 9 km/h 50 % 0 mm
18:44 -11.6 °C -17.1 °C 33788.9 hPa SW 15 km/h 15 km/h 50 % 0 mm
18:49 -11.6 °C -17.2 °C 33788.9 hPa SW 6 km/h 6 km/h 50 % 0 mm
18:54 -11.7 °C -17.1 °C 33788.9 hPa West 6 km/h 6 km/h 51 % 0 mm
18:59 -11.7 °C -17.1 °C 33788.9 hPa WNW 9 km/h 9 km/h 51 % 0 mm
19:04 -11.7 °C -17.1 °C 33788.9 hPa NNE 6 km/h 6 km/h 51 % 0 mm
19:09 -11.8 °C -17.1 °C 33788.9 hPa WNW 6 km/h 6 km/h 52 % 0 mm
19:14 -11.8 °C -17.1 °C 33788.9 hPa NW 3.1 km/h   52 % 0 mm
19:19 -11.8 °C -17.1 °C 33788.9 hPa WSW 3.1 km/h 3.7 km/h 52 % 0 mm
19:24 -11.8 °C -17.1 °C 33822.8 hPa West 9 km/h 9 km/h 52 % 0 mm
19:29 -11.9 °C -17.1 °C 33822.8 hPa West 6 km/h 6 km/h 52 % 0 mm
19:34 -11.9 °C -17.1 °C 33822.8 hPa WSW 7.6 km/h 7.6 km/h 52 % 0 mm
19:44 -11.9 °C -17.1 °C 33822.8 hPa WNW 11.9 km/h 11.9 km/h 53 % 0 mm
19:54 -12 °C -16.9 °C 33788.9 hPa West 17.9 km/h 17.9 km/h 54 % 0 mm
19:59 -12.1 °C -17 °C 33788.9 hPa West 15 km/h 15 km/h 54 % 0 mm
20:04 -12.1 °C -17.1 °C 33788.9 hPa West 11.9 km/h 11.9 km/h 54 % 0 mm
20:09 -12.1 °C -17.1 °C 33788.9 hPa West 15.3 km/h 15.3 km/h 54 % 0 mm
20:14 -12.2 °C -17.1 °C 33788.9 hPa WSW 15 km/h 15 km/h 54 % 0 mm
20:19 -12.2 °C -17.2 °C 33788.9 hPa NW 9.8 km/h 9.8 km/h 54 % 0 mm
20:24 -12.2 °C -17.2 °C 33788.9 hPa WSW 15 km/h 15 km/h 54 % 0 mm
20:29 -12.3 °C -17.2 °C 33788.9 hPa SW 23.8 km/h 23.8 km/h 54 % 0 mm
20:34 -12.3 °C -17.3 °C 33788.9 hPa WNW 15 km/h 15 km/h 54 % 0 mm
20:39 -12.4 °C -17.3 °C 33788.9 hPa West 15.6 km/h 15.6 km/h 54 % 0 mm
20:44 -12.4 °C -17.3 °C 33788.9 hPa West 15 km/h 15 km/h 54 % 0 mm
20:49 -12.4 °C -17.4 °C 33788.9 hPa NNE 17.9 km/h 17.9 km/h 54 % 0 mm
20:54 -12.5 °C -17.4 °C 33788.9 hPa SW 16.6 km/h 16.6 km/h 54 % 0 mm
20:59 -12.5 °C -17.3 °C 33788.9 hPa WSW 22 km/h 22 km/h 55 % 0 mm
21:04 -12.6 °C -17.2 °C 33788.9 hPa NNW 15 km/h 15 km/h 56 % 0 mm
21:09 -12.6 °C -17.2 °C 33751.6 hPa WSW 15.6 km/h 15.6 km/h 56 % 0 mm
21:14 -12.6 °C -17.2 °C 33751.6 hPa WSW 11.9 km/h 11.9 km/h 56 % 0 mm
21:19 -12.6 °C -17.3 °C 33751.6 hPa SSW 12.2 km/h 12.2 km/h 56 % 0 mm
21:24 -12.6 °C -17.3 °C 33788.9 hPa WSW 6 km/h 6 km/h 56 % 0 mm
21:29 -12.7 °C -17.2 °C 33788.9 hPa West 11.9 km/h 11.9 km/h 57 % 0 mm
21:34 -12.7 °C -17.2 °C 33788.9 hPa WNW 3.1 km/h   57 % 0 mm
21:39 -12.7 °C -17.2 °C 33788.9 hPa WSW 4.2 km/h 4.2 km/h 57 % 0 mm
21:44 -12.7 °C -17.2 °C 33788.9 hPa WSW 6 km/h 6.3 km/h 57 % 0 mm
21:49 -12.7 °C -17.2 °C 33788.9 hPa WSW 6 km/h 6 km/h 57 % 0 mm
21:54 -12.7 °C -17.1 °C 33788.9 hPa WSW 6 km/h 6 km/h 58 % 0 mm
21:59 -12.7 °C -17.1 °C 33788.9 hPa West 6.3 km/h   58 % 0 mm
22:04 -12.7 °C -17.1 °C 33788.9 hPa NNE 6.3 km/h 6.3 km/h 58 % 0 mm
22:09 -12.7 °C -17.1 °C 33788.9 hPa NE 9 km/h 9 km/h 58 % 0 mm
22:14 -12.7 °C -17.1 °C 33788.9 hPa ENE 6 km/h 6 km/h 58 % 0 mm
22:19 -12.7 °C -17.1 °C 33788.9 hPa NNE 3.1 km/h   58 % 0 mm
22:24 -12.7 °C -17.1 °C 33788.9 hPa NNE 3.1 km/h 3.1 km/h 58 % 0 mm
22:29 -12.7 °C -17.1 °C 33788.9 hPa Calm     58 % 0 mm
22:34 -12.7 °C -17.1 °C 33751.6 hPa ENE 5.1 km/h 5.1 km/h 58 % 0 mm
22:39 -12.7 °C -17.1 °C 33751.6 hPa NE 4.2 km/h 4.2 km/h 58 % 0 mm
22:44 -12.7 °C -17.1 °C 33751.6 hPa NE 6.3 km/h 6.3 km/h 58 % 0 mm
22:49 -12.7 °C -17.1 °C 33751.6 hPa NE 3.1 km/h 3.1 km/h 58 % 0 mm
22:54 -12.7 °C -17.1 °C 33788.9 hPa NNE 3.1 km/h 3.1 km/h 58 % 0 mm
22:59 -12.7 °C -16.9 °C 33788.9 hPa North 3.1 km/h   59 % 0 mm
23:04 -12.7 °C -16.8 °C 33788.9 hPa Calm     60 % 0 mm
23:09 -12.8 °C -16.8 °C 33822.8 hPa Calm     61 % 0 mm
23:14 -12.9 °C -16.8 °C 33822.8 hPa Calm     61 % 0 mm
23:19 -12.9 °C -16.8 °C 33822.8 hPa Calm     62 % 0 mm
23:24 -12.9 °C -16.6 °C 33822.8 hPa NNE 6 km/h 6 km/h 63 % 0 mm
Meteo Sesrovires
Elogis d' Weather Underground - 2 mb

Guio original per  Jim McMurry - jmcmurry@mwt.net Adaptat per a la plantilla per  Wim van der Kuil - Leuven-Template.eu

Trobareu la nostra informacio del temps tambe a:

Weather Underground

AWEKAS